createdAt,value
2022-11-01T00:00:24.821Z,100548.95
2022-11-01T00:03:16.832Z,100545.46
2022-11-01T00:05:49.639Z,100541.56
2022-11-01T00:08:21.698Z,100542.69
2022-11-01T00:10:53.823Z,100539.88
2022-11-01T00:13:25.873Z,100537.37
2022-11-01T00:15:58.055Z,100538.23
2022-11-01T00:18:30.478Z,100535.73
2022-11-01T00:21:02.547Z,100538.32
2022-11-01T00:23:34.841Z,100538.11
2022-11-01T00:26:07.796Z,100541.84
2022-11-01T00:28:40.072Z,100537.84
2022-11-01T00:31:12.950Z,100538.23
2022-11-01T00:33:45.341Z,100532.27
2022-11-01T00:36:17.725Z,100530.17
2022-11-01T00:38:53.868Z,100527.33
2022-11-01T00:41:25.983Z,100529.27
2022-11-01T00:43:58.021Z,100526.65
2022-11-01T00:46:30.729Z,100522.58
2022-11-01T00:49:03.076Z,100521.42
2022-11-01T00:51:35.064Z,100518.90
2022-11-01T00:54:07.578Z,100516.42
2022-11-01T00:56:39.632Z,100511.14
2022-11-01T00:59:11.631Z,100508.20
2022-11-01T01:01:43.725Z,100507.13
2022-11-01T01:04:15.852Z,100506.58
2022-11-01T01:06:47.844Z,100502.05
2022-11-01T01:09:19.863Z,100503.13
2022-11-01T01:11:51.949Z,100499.28
2022-11-01T01:14:26.498Z,100496.23
2022-11-01T01:17:02.177Z,100492.50
2022-11-01T01:19:34.267Z,100488.71
2022-11-01T01:22:06.306Z,100492.20
2022-11-01T01:24:39.037Z,100490.55
2022-11-01T01:27:11.026Z,100492.79
2022-11-01T01:29:44.586Z,100494.85
2022-11-01T01:32:18.281Z,100490.78
2022-11-01T01:34:51.104Z,100489.27
2022-11-01T01:37:23.259Z,100492.03
2022-11-01T01:39:55.582Z,100489.07
2022-11-01T01:42:31.894Z,100485.98
2022-11-01T01:45:33.144Z,100483.81
2022-11-01T01:48:16.629Z,100481.00
2022-11-01T01:50:57.246Z,100475.77
2022-11-01T01:53:32.744Z,100472.95
2022-11-01T01:56:08.289Z,100468.17
2022-11-01T01:58:46.258Z,100463.00
2022-11-01T02:01:18.474Z,100465.48
2022-11-01T02:03:51.296Z,100461.27
2022-11-01T02:06:25.800Z,100456.27
2022-11-01T02:09:00.818Z,100450.27
2022-11-01T02:11:32.919Z,100444.54
2022-11-01T02:14:05.576Z,100439.17
2022-11-01T02:16:53.259Z,100438.91
2022-11-01T02:19:54.916Z,100437.16
2022-11-01T02:22:41.752Z,100437.70
2022-11-01T02:25:55.218Z,100436.44
2022-11-01T02:28:46.378Z,100441.42
2022-11-01T02:31:36.569Z,100438.45
2022-11-01T02:34:18.111Z,100438.39
2022-11-01T02:36:57.265Z,100437.10
2022-11-01T02:39:33.326Z,100443.45
2022-11-01T02:42:11.151Z,100446.58
2022-11-01T02:44:46.476Z,100444.45
2022-11-01T02:47:19.377Z,100443.33
2022-11-01T02:49:57.229Z,100439.39
2022-11-01T02:52:33.087Z,100436.98
2022-11-01T02:55:29.899Z,100439.66
2022-11-01T02:58:05.725Z,100437.45
2022-11-01T03:00:39.537Z,100436.35
2022-11-01T03:03:16.573Z,100435.22
2022-11-01T03:05:59.006Z,100431.48
2022-11-01T03:08:34.476Z,100428.91
2022-11-01T03:11:11.555Z,100426.02
2022-11-01T03:13:54.662Z,100427.05
2022-11-01T03:16:32.691Z,100432.59
2022-11-01T03:19:27.029Z,100430.86
2022-11-01T03:22:05.114Z,100425.83
2022-11-01T03:24:42.196Z,100424.39
2022-11-01T03:27:20.908Z,100421.13
2022-11-01T03:29:59.897Z,100424.16
2022-11-01T03:32:37.603Z,100429.35
2022-11-01T03:35:16.261Z,100424.89
2022-11-01T03:37:50.863Z,100424.64
2022-11-01T03:40:24.743Z,100419.45
2022-11-01T03:43:00.086Z,100414.91
2022-11-01T03:45:35.392Z,100410.61
2022-11-01T03:48:08.129Z,100410.77
2022-11-01T03:50:41.124Z,100408.49
2022-11-01T03:53:13.092Z,100408.80
2022-11-01T03:55:45.410Z,100410.60
2022-11-01T03:58:17.603Z,100410.66
2022-11-01T04:00:50.976Z,100410.00
2022-11-01T04:03:23.169Z,100407.34
2022-11-01T04:05:55.159Z,100410.14
2022-11-01T04:08:27.235Z,100412.87
2022-11-01T04:10:59.327Z,100415.61
2022-11-01T04:13:31.355Z,100415.29
2022-11-01T04:16:21.110Z,100408.70
2022-11-01T04:19:10.917Z,100411.14
2022-11-01T04:21:43.579Z,100408.14
2022-11-01T04:24:21.255Z,100408.15
2022-11-01T04:26:53.931Z,100409.06
2022-11-01T04:29:25.839Z,100407.75
2022-11-01T04:31:57.902Z,100407.23
2022-11-01T04:34:45.266Z,100406.59
2022-11-01T04:37:17.318Z,100406.83
2022-11-01T04:39:49.362Z,100411.86
2022-11-01T04:42:21.450Z,100415.61
2022-11-01T04:44:53.437Z,100413.01
2022-11-01T04:47:25.457Z,100405.36
2022-11-01T04:49:57.493Z,100405.60
2022-11-01T04:52:29.739Z,100402.67
2022-11-01T04:55:01.685Z,100394.55
2022-11-01T04:57:38.908Z,100391.88
2022-11-01T05:00:14.282Z,100391.08
2022-11-01T05:02:46.475Z,100393.93
2022-11-01T05:05:19.176Z,100398.12
2022-11-01T05:07:51.257Z,100394.46
2022-11-01T05:10:23.312Z,100386.96
2022-11-01T05:12:55.405Z,100379.84
2022-11-01T05:15:27.446Z,100374.73
2022-11-01T05:17:59.562Z,100374.13
2022-11-01T05:20:32.064Z,100367.73
2022-11-01T05:23:05.859Z,100366.80
2022-11-01T05:25:38.522Z,100366.21
2022-11-01T05:28:14.182Z,100363.02
2022-11-01T05:30:46.268Z,100361.13
2022-11-01T05:33:18.329Z,100361.98
2022-11-01T05:35:50.355Z,100356.84
2022-11-01T05:38:22.436Z,100360.25
2022-11-01T05:40:54.502Z,100359.73
2022-11-01T05:43:26.570Z,100363.53
2022-11-01T05:45:58.507Z,100364.89
2022-11-01T05:48:30.545Z,100361.81
2022-11-01T05:51:02.665Z,100359.66
2022-11-01T05:53:34.703Z,100352.66
2022-11-01T05:56:06.973Z,100354.16
2022-11-01T05:58:38.987Z,100355.15
2022-11-01T06:01:11.500Z,100358.23
2022-11-01T06:03:43.684Z,100358.66
2022-11-01T06:06:15.624Z,100366.12
2022-11-01T06:08:47.662Z,100366.94
2022-11-01T06:11:19.675Z,100368.38
2022-11-01T06:13:56.220Z,100360.88
2022-11-01T06:16:28.749Z,100359.64
2022-11-01T06:19:00.788Z,100366.17
2022-11-01T06:21:32.778Z,100364.77
2022-11-01T06:24:05.048Z,100360.52
2022-11-01T06:26:37.118Z,100364.30
2022-11-01T06:29:09.231Z,100372.88
2022-11-01T06:31:41.731Z,100382.54
2022-11-01T06:34:13.900Z,100395.29
2022-11-01T06:36:46.224Z,100400.30
2022-11-01T06:39:18.904Z,100407.86
2022-11-01T06:41:50.937Z,100415.36
2022-11-01T06:44:23.212Z,100416.39
2022-11-01T06:46:56.116Z,100412.77
2022-11-01T06:49:29.597Z,100406.66
2022-11-01T06:52:01.867Z,100398.98
2022-11-01T06:54:33.935Z,100407.88
2022-11-01T06:57:06.146Z,100404.39
2022-11-01T06:59:38.166Z,100405.80
2022-11-01T07:02:14.451Z,100403.12
2022-11-01T07:04:47.547Z,100394.95
2022-11-01T07:07:19.742Z,100385.24
2022-11-01T07:09:51.733Z,100375.66
2022-11-01T07:12:23.744Z,100373.69
2022-11-01T07:14:55.790Z,100372.13
2022-11-01T07:17:27.850Z,100362.95
2022-11-01T07:19:59.890Z,100359.02
2022-11-01T07:22:31.930Z,100354.21
2022-11-01T07:25:04.285Z,100344.41
2022-11-01T07:27:38.085Z,100344.73
2022-11-01T07:30:13.463Z,100347.20
2022-11-01T07:32:45.427Z,100339.01
2022-11-01T07:35:17.665Z,100333.66
2022-11-01T07:37:49.629Z,100334.15
2022-11-01T07:40:27.664Z,100329.56
2022-11-01T07:43:02.129Z,100322.50
2022-11-01T07:45:36.138Z,100317.05
2022-11-01T07:48:11.419Z,100312.64
2022-11-01T07:50:44.314Z,100310.91
2022-11-01T07:53:18.476Z,100316.58
2022-11-01T07:55:50.930Z,100325.58
2022-11-01T07:58:23.071Z,100321.08
2022-11-01T08:00:55.237Z,100323.63
2022-11-01T08:03:27.356Z,100324.70
2022-11-01T08:05:59.376Z,100322.44
2022-11-01T08:08:31.591Z,100330.36
2022-11-01T08:11:04.041Z,100328.07
2022-11-01T08:13:36.083Z,100321.65
2022-11-01T08:16:09.160Z,100316.13
2022-11-01T08:18:41.109Z,100312.65
2022-11-01T08:21:18.851Z,100305.42
2022-11-01T08:23:51.179Z,100300.85
2022-11-01T08:26:23.223Z,100299.67
2022-11-01T08:28:55.520Z,100306.35
2022-11-01T08:31:27.556Z,100303.65
2022-11-01T08:33:59.571Z,100300.38
2022-11-01T08:36:31.687Z,100309.00
2022-11-01T08:39:03.850Z,100314.23
2022-11-01T08:41:37.464Z,100303.55
2022-11-01T08:44:09.831Z,100291.23
2022-11-01T08:46:43.151Z,100288.34
2022-11-01T08:49:15.754Z,100287.27
2022-11-01T08:51:47.768Z,100276.56
2022-11-01T08:54:19.783Z,100266.82
2022-11-01T08:56:51.835Z,100257.67
2022-11-01T08:59:24.042Z,100249.55
2022-11-01T09:01:56.141Z,100242.46
2022-11-01T09:04:28.380Z,100235.17
2022-11-01T09:07:00.366Z,100242.16
2022-11-01T09:09:32.588Z,100243.67
2022-11-01T09:12:10.856Z,100243.09
2022-11-01T09:14:48.188Z,100238.90
2022-11-01T09:17:20.255Z,100236.41
2022-11-01T09:19:52.550Z,100231.70
2022-11-01T09:22:25.000Z,100223.55
2022-11-01T09:24:58.859Z,100225.02
2022-11-01T09:27:30.897Z,100233.89
2022-11-01T09:30:02.994Z,100231.75
2022-11-01T09:32:35.105Z,100208.27
2022-11-01T09:35:09.171Z,100197.61
2022-11-01T09:37:41.162Z,100195.57
2022-11-01T09:40:15.919Z,100201.30
2022-11-01T09:42:47.235Z,100198.36
2022-11-01T09:45:23.192Z,100191.04
2022-11-01T09:47:57.304Z,100190.91
2022-11-01T09:50:34.568Z,100206.04
2022-11-01T09:53:10.731Z,100208.94
2022-11-01T09:55:49.660Z,100189.86
2022-11-01T09:58:31.680Z,100190.53
2022-11-01T10:01:13.463Z,100204.02
2022-11-01T10:03:59.083Z,100222.60
2022-11-01T10:06:36.345Z,100241.13
2022-11-01T10:09:15.323Z,100261.02
2022-11-01T10:12:12.863Z,100257.84
2022-11-01T10:15:04.998Z,100238.21
2022-11-01T10:17:52.652Z,100233.20
2022-11-01T10:20:29.098Z,100244.42
2022-11-01T10:23:02.799Z,100259.70
2022-11-01T10:25:39.352Z,100261.48
2022-11-01T10:28:20.322Z,100269.67
2022-11-01T10:30:58.531Z,100255.95
2022-11-01T10:33:36.231Z,100244.95
2022-11-01T10:36:14.773Z,100236.39
2022-11-01T10:39:23.379Z,100248.42
2022-11-01T10:41:46.629Z,100264.84
2022-11-01T10:44:25.690Z,100256.92
2022-11-01T10:46:59.979Z,100261.96
2022-11-01T10:52:34.196Z,100284.84
2022-11-01T10:55:13.141Z,100279.48
2022-11-01T10:57:49.686Z,100287.10
2022-11-01T11:00:23.719Z,100294.06
2022-11-01T11:02:59.373Z,100300.48
2022-11-01T11:05:33.846Z,100289.41
2022-11-01T11:08:15.281Z,100286.76
2022-11-01T11:10:48.399Z,100279.24
2022-11-01T11:13:23.948Z,100270.26
2022-11-01T11:16:00.633Z,100264.34
2022-11-01T11:18:35.417Z,100271.48
2022-11-01T11:21:09.780Z,100263.09
2022-11-01T11:23:46.376Z,100253.78
2022-11-01T11:26:21.258Z,100254.53
2022-11-01T11:28:57.382Z,100257.69
2022-11-01T11:31:32.086Z,100243.84
2022-11-01T11:34:06.403Z,100242.81
2022-11-01T11:36:42.746Z,100250.45
2022-11-01T11:39:27.075Z,100248.13
2022-11-01T11:42:14.218Z,100242.60
2022-11-01T11:44:51.897Z,100236.70
2022-11-01T11:47:29.638Z,100239.02
2022-11-01T11:50:01.650Z,100243.39
2022-11-01T11:52:38.923Z,100241.90
2022-11-01T11:55:34.791Z,100240.70
2022-11-01T11:58:17.325Z,100238.17
2022-11-01T12:00:53.600Z,100230.82
2022-11-01T12:03:25.814Z,100232.71
2022-11-01T12:06:01.342Z,100229.97
2022-11-01T12:08:45.097Z,100236.02
2022-11-01T12:11:18.472Z,100233.48
2022-11-01T12:14:04.261Z,100228.04
2022-11-01T12:16:42.685Z,100236.17
2022-11-01T12:19:28.713Z,100241.47
2022-11-01T12:22:04.369Z,100235.73
2022-11-01T12:24:44.039Z,100237.46
2022-11-01T12:27:19.688Z,100246.02
2022-11-01T12:29:56.561Z,100254.81
2022-11-01T12:32:31.956Z,100256.91
2022-11-01T12:35:12.335Z,100263.64
2022-11-01T12:37:52.768Z,100255.25
2022-11-01T12:40:29.351Z,100247.58
2022-11-01T12:43:06.521Z,100242.88
2022-11-01T12:45:50.148Z,100238.70
2022-11-01T12:48:29.230Z,100245.36
2022-11-01T12:51:26.112Z,100241.13
2022-11-01T12:54:06.146Z,100242.34
2022-11-01T12:56:38.218Z,100235.16
2022-11-01T12:59:13.229Z,100228.65
2022-11-01T13:01:53.872Z,100219.88
2022-11-01T13:04:33.131Z,100229.39
2022-11-01T13:07:25.088Z,100235.23
2022-11-01T13:10:08.036Z,100241.91
2022-11-01T13:12:51.346Z,100251.54
2022-11-01T13:15:31.339Z,100251.77
2022-11-01T13:18:10.930Z,100254.66
2022-11-01T13:20:54.830Z,100254.70
2022-11-01T13:23:33.955Z,100258.72
2022-11-01T13:26:14.596Z,100256.91
2022-11-01T13:29:17.618Z,100251.95
2022-11-01T13:31:57.447Z,100251.66
2022-11-01T13:34:37.925Z,100247.77
2022-11-01T13:37:21.819Z,100242.85
2022-11-01T13:40:07.937Z,100249.50
2022-11-01T13:42:43.176Z,100249.64
2022-11-01T13:45:36.162Z,100233.34
2022-11-01T13:48:20.100Z,100228.45
2022-11-01T13:51:24.029Z,100220.81
2022-11-01T13:54:03.096Z,100232.67
2022-11-01T13:56:38.056Z,100241.31
2022-11-01T13:59:31.061Z,100246.70
2022-11-01T14:02:36.301Z,100242.46
2022-11-01T14:05:11.272Z,100242.46
2022-11-01T14:08:20.453Z,100250.95
2022-11-01T14:10:53.694Z,100243.06
2022-11-01T14:13:38.952Z,100248.86
2022-11-01T14:16:28.242Z,100256.89
2022-11-01T14:19:21.377Z,100257.44
2022-11-01T14:21:55.591Z,100255.52
2022-11-01T14:24:35.577Z,100264.65
2022-11-01T14:27:37.216Z,100251.20
2022-11-01T14:30:16.544Z,100246.77
2022-11-01T14:32:54.312Z,100245.92
2022-11-01T14:35:30.717Z,100244.55
2022-11-01T14:38:05.520Z,100249.58
2022-11-01T14:40:42.105Z,100253.80
2022-11-01T14:43:20.099Z,100252.81
2022-11-01T14:45:58.080Z,100247.04
2022-11-01T14:48:37.224Z,100246.70
2022-11-01T14:51:18.196Z,100246.05
2022-11-01T14:53:59.605Z,100236.94
2022-11-01T14:56:41.009Z,100230.87
2022-11-01T14:59:20.890Z,100222.19
2022-11-01T15:01:58.235Z,100223.13
2022-11-01T15:04:40.970Z,100218.38
2022-11-01T15:07:27.666Z,100213.86
2022-11-01T15:10:08.732Z,100219.94
2022-11-01T15:12:49.196Z,100226.38
2022-11-01T15:15:25.177Z,100235.58
2022-11-01T15:18:00.643Z,100243.30
2022-11-01T15:20:37.756Z,100251.33
2022-11-01T15:23:12.203Z,100249.72
2022-11-01T15:25:45.778Z,100255.14
2022-11-01T15:28:25.039Z,100248.15
2022-11-01T15:30:58.851Z,100251.54
2022-11-01T15:33:32.267Z,100255.80
2022-11-01T15:36:08.352Z,100253.30
2022-11-01T15:38:53.683Z,100256.27
2022-11-01T15:41:29.814Z,100257.52
2022-11-01T15:44:05.283Z,100253.85
2022-11-01T15:46:41.721Z,100256.69
2022-11-01T15:49:18.876Z,100255.67
2022-11-01T15:52:19.785Z,100250.44
2022-11-01T15:54:57.515Z,100244.23
2022-11-01T15:57:34.128Z,100241.02
2022-11-01T16:00:18.164Z,100239.72
2022-11-01T16:02:56.051Z,100242.19
2022-11-01T16:05:35.085Z,100250.16
2022-11-01T16:08:10.525Z,100254.35
2022-11-01T16:10:46.948Z,100256.71
2022-11-01T16:13:21.185Z,100246.23
2022-11-01T16:16:08.026Z,100241.52
2022-11-01T16:18:41.757Z,100238.14
2022-11-01T16:21:32.352Z,100232.48
2022-11-01T16:24:15.763Z,100239.70
2022-11-01T16:27:01.369Z,100249.43
2022-11-01T16:29:50.321Z,100257.52
2022-11-01T16:32:26.568Z,100256.36
2022-11-01T16:35:00.262Z,100255.26
2022-11-01T16:37:37.734Z,100258.84
2022-11-01T16:40:27.356Z,100261.20
2022-11-01T16:43:00.969Z,100258.25
2022-11-01T16:45:32.957Z,100255.50
2022-11-01T16:48:05.629Z,100258.06
2022-11-01T16:50:38.011Z,100253.67
2022-11-01T16:53:13.330Z,100255.52
2022-11-01T16:55:45.444Z,100260.23
2022-11-01T16:58:22.705Z,100261.20
2022-11-01T17:00:57.254Z,100262.87
2022-11-01T17:03:31.216Z,100270.52
2022-11-01T17:06:04.154Z,100269.61
2022-11-01T17:08:36.934Z,100270.16
2022-11-01T17:11:09.998Z,100269.91
2022-11-01T17:13:42.424Z,100276.30
2022-11-01T17:16:22.033Z,100272.70
2022-11-01T17:18:58.376Z,100276.10
2022-11-01T17:21:33.212Z,100276.11
2022-11-01T17:24:03.823Z,100281.11
2022-11-01T17:26:36.653Z,100282.88
2022-11-01T17:29:09.620Z,100278.70
2022-11-01T17:31:41.763Z,100274.45
2022-11-01T17:34:13.772Z,100272.33
2022-11-01T17:36:49.832Z,100268.05
2022-11-01T17:39:22.025Z,100265.29
2022-11-01T17:41:53.963Z,100267.24
2022-11-01T17:44:26.057Z,100267.27
2022-11-01T17:46:58.148Z,100264.64
2022-11-01T17:49:30.416Z,100260.01
2022-11-01T17:52:04.369Z,100264.09
2022-11-01T17:54:36.494Z,100266.98
2022-11-01T17:57:08.508Z,100266.90
2022-11-01T17:59:40.984Z,100270.36
2022-11-01T18:02:13.694Z,100274.08
2022-11-01T18:04:45.884Z,100272.70
2022-11-01T18:07:18.129Z,100269.95
2022-11-01T18:09:50.297Z,100273.22
2022-11-01T18:12:33.423Z,100272.52
2022-11-01T18:15:16.522Z,100274.94
2022-11-01T18:17:57.598Z,100283.38
2022-11-01T18:20:43.823Z,100282.89
2022-11-01T18:23:15.933Z,100287.23
2022-11-01T18:25:49.949Z,100284.34
2022-11-01T18:28:25.371Z,100282.08
2022-11-01T18:31:01.232Z,100280.89
2022-11-01T18:33:40.713Z,100277.59
2022-11-01T18:36:21.538Z,100273.38
2022-11-01T18:39:02.559Z,100272.61
2022-11-01T18:41:34.575Z,100272.54
2022-11-01T18:44:12.659Z,100273.24
2022-11-01T18:46:52.479Z,100273.46
2022-11-01T18:49:27.695Z,100275.63
2022-11-01T18:52:00.605Z,100278.44
2022-11-01T18:54:34.233Z,100279.52
2022-11-01T18:57:16.308Z,100277.76
2022-11-01T18:59:50.372Z,100277.61
2022-11-01T19:02:25.663Z,100279.29
2022-11-01T19:05:12.012Z,100280.12
2022-11-01T19:08:09.717Z,100279.77
2022-11-01T19:10:37.648Z,100276.05
2022-11-01T19:13:13.947Z,100271.41
2022-11-01T19:15:49.052Z,100270.93
2022-11-01T19:18:26.466Z,100268.73
2022-11-01T19:21:00.169Z,100270.14
2022-11-01T19:23:38.153Z,100267.84
2022-11-01T19:26:22.130Z,100267.70
2022-11-01T19:28:54.443Z,100268.48
2022-11-01T19:31:32.729Z,100266.88
2022-11-01T19:34:10.351Z,100269.20
2022-11-01T19:36:44.618Z,100266.30
2022-11-01T19:39:24.850Z,100265.83
2022-11-01T19:42:01.425Z,100264.07
2022-11-01T19:44:33.794Z,100266.20
2022-11-01T19:47:31.869Z,100263.77
2022-11-01T19:50:11.590Z,100266.38
2022-11-01T19:52:47.565Z,100271.11
2022-11-01T19:55:44.471Z,100271.98
2022-11-01T19:58:45.777Z,100275.90
2022-11-01T20:01:40.930Z,100280.42
2022-11-01T20:04:33.116Z,100282.70
2022-11-01T20:07:16.539Z,100278.92
2022-11-01T20:09:49.332Z,100281.15
2022-11-01T20:12:22.318Z,100284.19
2022-11-01T20:14:54.770Z,100288.55
2022-11-01T20:17:27.166Z,100288.45
2022-11-01T20:19:59.155Z,100287.61
2022-11-01T20:22:31.172Z,100287.24
2022-11-01T20:25:03.138Z,100283.34
2022-11-01T20:27:35.177Z,100289.63
2022-11-01T20:30:10.127Z,100290.86
2022-11-01T20:32:42.250Z,100292.55
2022-11-01T20:35:14.718Z,100292.10
2022-11-01T20:37:46.921Z,100290.55
2022-11-01T20:40:19.214Z,100293.36
2022-11-01T20:42:51.361Z,100294.20
2022-11-01T20:45:23.840Z,100294.91
2022-11-01T20:47:56.077Z,100297.45
2022-11-01T20:50:28.117Z,100301.86
2022-11-01T20:53:00.520Z,100300.56
2022-11-01T20:55:32.818Z,100298.98
2022-11-01T20:58:05.916Z,100296.89
2022-11-01T21:00:38.456Z,100294.79
2022-11-01T21:03:16.284Z,100297.04
2022-11-01T21:05:51.189Z,100299.86
2022-11-01T21:08:25.634Z,100295.77
2022-11-01T21:11:02.089Z,100296.59
2022-11-01T21:13:36.884Z,100291.97
2022-11-01T21:16:14.163Z,100288.58
2022-11-01T21:18:47.419Z,100285.02
2022-11-01T21:21:39.175Z,100289.71
2022-11-01T21:24:34.839Z,100292.27
2022-11-01T21:27:26.815Z,100290.73
2022-11-01T21:30:14.811Z,100290.60
2022-11-01T21:32:47.566Z,100290.95
2022-11-01T21:35:42.109Z,100291.31
2022-11-01T21:38:33.272Z,100289.44
2022-11-01T21:41:17.626Z,100290.81
2022-11-01T21:43:49.716Z,100291.24
2022-11-01T21:46:24.317Z,100289.77
2022-11-01T21:49:00.709Z,100287.80
2022-11-01T21:51:32.851Z,100286.30
2022-11-01T21:54:05.071Z,100288.44
2022-11-01T21:56:37.086Z,100291.89
2022-11-01T21:59:09.036Z,100293.77
2022-11-01T22:01:42.256Z,100293.00
2022-11-01T22:04:15.331Z,100290.60
2022-11-01T22:06:49.088Z,100295.27
2022-11-01T22:09:22.793Z,100292.19
2022-11-01T22:11:55.240Z,100290.13
2022-11-01T22:14:27.689Z,100290.63
2022-11-01T22:17:01.117Z,100291.23
2022-11-01T22:19:33.129Z,100295.92
2022-11-01T22:22:05.196Z,100299.58
2022-11-01T22:24:37.182Z,100301.42
2022-11-01T22:27:09.253Z,100299.04
2022-11-01T22:29:41.212Z,100303.62
2022-11-01T22:32:13.173Z,100298.28
2022-11-01T22:34:47.857Z,100304.61
2022-11-01T22:37:20.071Z,100308.86
2022-11-01T22:39:53.217Z,100308.89
2022-11-01T22:42:26.584Z,100312.69
2022-11-01T22:44:58.650Z,100310.89
2022-11-01T22:47:32.077Z,100305.80
2022-11-01T22:50:05.004Z,100308.02
2022-11-01T22:52:41.235Z,100308.13
2022-11-01T22:55:23.094Z,100303.13
2022-11-01T22:57:58.873Z,100302.10
2022-11-01T23:00:33.802Z,100309.86
2022-11-01T23:03:16.622Z,100310.24
2022-11-01T23:05:51.477Z,100310.90
2022-11-01T23:08:27.929Z,100308.97
2022-11-01T23:11:01.755Z,100310.03
2022-11-01T23:13:53.474Z,100312.27
2022-11-01T23:16:28.770Z,100307.11
2022-11-01T23:19:04.089Z,100308.64
2022-11-01T23:21:36.378Z,100313.30
2022-11-01T23:24:09.629Z,100311.90
2022-11-01T23:26:41.772Z,100307.88
2022-11-01T23:29:14.611Z,100300.73
2022-11-01T23:31:46.830Z,100300.09
2022-11-01T23:34:18.940Z,100300.27
2022-11-01T23:36:51.188Z,100295.96
2022-11-01T23:39:23.431Z,100291.25
2022-11-01T23:41:56.624Z,100291.88
2022-11-01T23:44:32.083Z,100285.13
2022-11-01T23:47:15.366Z,100288.02
2022-11-01T23:49:50.229Z,100288.81
2022-11-01T23:52:34.408Z,100290.35
2022-11-01T23:55:15.303Z,100289.79
2022-11-01T23:57:47.730Z,100288.11
